Time;durP1;ratioP1;P1;durP2;ratioP2;P2;SDS_P1;SDS_P2;PMS_P1;PMS_P2;Temp;Humidity;BMP_temperature;BMP_pressure;BME280_temperature;BME280_humidity;BME280_pressure;Samples;Min_cycle;Max_cycle;Signal;HPM_P1;HPM_P2
2024/01/30 00:01:51;;;;;;;225.88;65.72;;;;;;;;;;5072194;28;20436;-45
2024/01/30 00:04:17;;;;;;;224.50;65.32;;;;;;;;;;5089223;28;20278;-44
2024/01/30 00:06:44;;;;;;;225.50;64.50;;;;;;;;;;5081269;28;20268;-46
2024/01/30 00:09:10;;;;;;;227.35;66.18;;;;;;;;;;5078685;28;20416;-45
2024/01/30 00:11:36;;;;;;;225.55;64.70;;;;;;;;;;5086072;28;20224;-45
2024/01/30 00:14:03;;;;;;;226.30;66.75;;;;;;;;;;5084272;28;20181;-44
2024/01/30 00:16:29;;;;;;;228.77;68.30;;;;;;;;;;5084943;28;20219;-44
2024/01/30 00:18:55;;;;;;;228.40;66.85;;;;;;;;;;5082390;28;20165;-44
2024/01/30 00:21:21;;;;;;;222.88;63.00;;;;;;;;;;5084338;28;20194;-45
2024/01/30 00:23:47;;;;;;;225.52;66.15;;;;;;;;;;5085957;28;20194;-45
2024/01/30 00:26:14;;;;;;;224.15;64.88;;;;;;;;;;5090778;28;20266;-44
2024/01/30 00:28:40;;;;;;;222.88;64.97;;;;;;;;;;5085479;28;20261;-46
2024/01/30 00:31:07;;;;;;;221.68;64.53;;;;;;;;;;5092589;28;20259;-45
2024/01/30 00:33:33;;;;;;;224.02;66.15;;;;;;;;;;5089382;28;20291;-45
2024/01/30 00:35:59;;;;;;;223.93;69.53;;;;;;;;;;5087831;28;20197;-45
2024/01/30 00:38:25;;;;;;;219.00;62.25;;;;;;;;;;5088315;28;20536;-45
2024/01/30 00:40:51;;;;;;;225.25;65.43;;;;;;;;;;5089042;28;20182;-44
2024/01/30 00:43:17;;;;;;;223.70;63.50;;;;;;;;;;5088000;28;20165;-44
2024/01/30 00:45:46;;;;;;;224.13;64.40;;;;;;;;;;5089411;28;20499;-44
2024/01/30 00:48:12;;;;;;;222.15;63.85;;;;;;;;;;5081246;28;20792;-44
2024/01/30 00:50:38;;;;;;;223.73;64.17;;;;;;;;;;5084048;28;20177;-45
2024/01/30 00:53:04;;;;;;;222.43;63.30;;;;;;;;;;5089167;28;20488;-46
2024/01/30 00:55:30;;;;;;;223.65;66.95;;;;;;;;;;5088583;28;20427;-46
2024/01/30 00:57:56;;;;;;;221.70;61.40;;;;;;;;;;5094830;28;20181;-45
2024/01/30 01:00:23;;;;;;;222.13;63.07;;;;;;;;;;5088051;28;20471;-46
2024/01/30 01:02:49;;;;;;;224.60;65.32;;;;;;;;;;5087774;28;20449;-46
2024/01/30 01:05:15;;;;;;;222.77;64.17;;;;;;;;;;5087232;28;20170;-44
2024/01/30 01:07:42;;;;;;;222.73;63.70;;;;;;;;;;5089262;28;20416;-44
2024/01/30 01:10:08;;;;;;;222.38;64.25;;;;;;;;;;5092155;28;20256;-45
2024/01/30 01:12:34;;;;;;;221.33;63.43;;;;;;;;;;5089153;28;20229;-45
2024/01/30 01:15:00;;;;;;;226.35;68.35;;;;;;;;;;5087143;28;20400;-46
2024/01/30 01:17:27;;;;;;;222.50;65.07;;;;;;;;;;5087878;28;20181;-45
2024/01/30 01:19:52;;;;;;;224.77;68.45;;;;;;;;;;5086821;28;20406;-46
2024/01/30 01:22:18;;;;;;;223.63;65.40;;;;;;;;;;5087475;28;20238;-44
2024/01/30 01:24:44;;;;;;;223.27;64.17;;;;;;;;;;5088385;28;20404;-45
2024/01/30 01:27:11;;;;;;;222.90;63.47;;;;;;;;;;5092156;28;20427;-45
2024/01/30 01:29:37;;;;;;;223.23;64.80;;;;;;;;;;5084013;28;20412;-44
2024/01/30 01:32:03;;;;;;;221.37;63.33;;;;;;;;;;5091876;28;20204;-45
2024/01/30 01:34:29;;;;;;;221.82;63.90;;;;;;;;;;5088082;28;20414;-45
2024/01/30 01:36:55;;;;;;;222.73;65.57;;;;;;;;;;5086923;28;20201;-45
2024/01/30 01:39:21;;;;;;;224.20;65.27;;;;;;;;;;5087234;28;20161;-44
2024/01/30 01:41:47;;;;;;;222.73;64.88;;;;;;;;;;5091437;28;20419;-45
2024/01/30 01:44:13;;;;;;;223.27;65.40;;;;;;;;;;5086195;28;20193;-44
2024/01/30 01:46:39;;;;;;;222.37;63.10;;;;;;;;;;5088993;28;20499;-44
2024/01/30 01:49:05;;;;;;;224.93;68.87;;;;;;;;;;5091093;28;20419;-45
2024/01/30 01:51:33;;;;;;;221.48;62.90;;;;;;;;;;5088026;28;20460;-45
2024/01/30 01:54:02;;;;;;;223.05;64.97;;;;;;;;;;5079647;28;20260;-43
2024/01/30 01:56:29;;;;;;;222.65;63.70;;;;;;;;;;5084969;28;20170;-46
2024/01/30 01:58:55;;;;;;;224.77;66.47;;;;;;;;;;5084340;28;20633;-43
2024/01/30 02:01:22;;;;;;;221.18;62.50;;;;;;;;;;5072376;28;20279;-43
2024/01/30 02:03:48;;;;;;;226.80;67.80;;;;;;;;;;5084120;28;20185;-43
2024/01/30 02:06:15;;;;;;;221.82;63.25;;;;;;;;;;5088565;28;20182;-43
2024/01/30 02:08:40;;;;;;;223.95;65.07;;;;;;;;;;5086226;28;20645;-43
2024/01/30 02:11:07;;;;;;;222.53;64.00;;;;;;;;;;5082667;28;20216;-43
2024/01/30 02:13:32;;;;;;;228.13;69.80;;;;;;;;;;5085606;28;20406;-43
2024/01/30 02:15:58;;;;;;;222.80;64.57;;;;;;;;;;5083900;28;20260;-43
2024/01/30 02:18:24;;;;;;;222.37;65.90;;;;;;;;;;5084034;28;20440;-44
2024/01/30 02:20:53;;;;;;;223.10;65.07;;;;;;;;;;5085046;28;20474;-43
2024/01/30 02:23:20;;;;;;;224.88;65.72;;;;;;;;;;5088613;28;20404;-43
2024/01/30 02:25:46;;;;;;;221.50;63.95;;;;;;;;;;5080709;28;20234;-43
2024/01/30 02:28:15;;;;;;;221.50;62.80;;;;;;;;;;5088767;28;20209;-43
2024/01/30 02:30:43;;;;;;;223.50;64.38;;;;;;;;;;5086632;28;20173;-43
2024/01/30 02:33:09;;;;;;;223.30;63.30;;;;;;;;;;5083717;28;20173;-43
2024/01/30 02:35:35;;;;;;;222.30;65.90;;;;;;;;;;5083546;28;20686;-44
2024/01/30 02:38:01;;;;;;;222.85;64.85;;;;;;;;;;5084121;28;20453;-45
2024/01/30 02:40:27;;;;;;;219.93;63.25;;;;;;;;;;5083535;28;20169;-43
2024/01/30 02:42:53;;;;;;;222.03;64.10;;;;;;;;;;5082503;28;20239;-43
2024/01/30 02:45:19;;;;;;;221.87;63.57;;;;;;;;;;5088231;28;20408;-42
2024/01/30 02:47:46;;;;;;;222.75;64.32;;;;;;;;;;5086687;28;20759;-43
2024/01/30 02:50:12;;;;;;;222.13;65.63;;;;;;;;;;5083486;28;20189;-43
2024/01/30 02:52:38;;;;;;;220.63;64.33;;;;;;;;;;5083774;28;20208;-43
2024/01/30 02:55:04;;;;;;;223.23;67.20;;;;;;;;;;5083040;28;20880;-43
2024/01/30 02:57:30;;;;;;;223.27;65.72;;;;;;;;;;5083536;28;20409;-43
2024/01/30 02:59:56;;;;;;;221.75;65.38;;;;;;;;;;5076199;28;20173;-44
2024/01/30 03:02:22;;;;;;;222.70;64.10;;;;;;;;;;5083381;28;20765;-43
2024/01/30 03:04:48;;;;;;;220.05;65.50;;;;;;;;;;5091525;28;20407;-43
2024/01/30 03:07:14;;;;;;;220.57;63.00;;;;;;;;;;5083242;28;20269;-43
2024/01/30 03:09:42;;;;;;;221.32;63.72;;;;;;;;;;5083471;28;20414;-44
2024/01/30 03:12:08;;;;;;;224.65;68.95;;;;;;;;;;5083305;28;20612;-43
2024/01/30 03:14:34;;;;;;;224.47;66.67;;;;;;;;;;5086083;28;20212;-44
2024/01/30 03:17:00;;;;;;;222.33;64.90;;;;;;;;;;5081438;28;20408;-44
2024/01/30 03:19:26;;;;;;;220.87;64.67;;;;;;;;;;5085645;28;20408;-43
2024/01/30 03:21:52;;;;;;;222.63;66.37;;;;;;;;;;5087523;28;20484;-43
2024/01/30 03:24:18;;;;;;;220.73;63.47;;;;;;;;;;5082947;28;20414;-43
2024/01/30 03:26:44;;;;;;;221.73;64.80;;;;;;;;;;5083242;28;20915;-43
2024/01/30 03:29:10;;;;;;;224.52;67.22;;;;;;;;;;5084064;28;20457;-43
2024/01/30 03:31:36;;;;;;;220.85;63.50;;;;;;;;;;5083093;28;20231;-43
2024/01/30 03:34:02;;;;;;;221.77;64.15;;;;;;;;;;5077772;28;20265;-44
2024/01/30 03:36:28;;;;;;;220.85;62.55;;;;;;;;;;5086846;28;20573;-43
2024/01/30 03:38:54;;;;;;;221.70;64.22;;;;;;;;;;5088020;28;20538;-43
2024/01/30 03:41:21;;;;;;;222.20;65.03;;;;;;;;;;5074791;28;20189;-43
2024/01/30 03:43:47;;;;;;;219.63;62.00;;;;;;;;;;5083731;28;20180;-44
2024/01/30 03:46:13;;;;;;;224.23;65.07;;;;;;;;;;5082843;28;20541;-44
2024/01/30 03:48:39;;;;;;;225.03;67.27;;;;;;;;;;5082992;28;20277;-42
2024/01/30 03:51:06;;;;;;;225.52;67.05;;;;;;;;;;5082914;28;20451;-43
2024/01/30 03:53:32;;;;;;;229.35;70.43;;;;;;;;;;5086023;28;20170;-43
2024/01/30 03:55:58;;;;;;;225.40;66.57;;;;;;;;;;5086964;28;20175;-43
2024/01/30 03:58:24;;;;;;;223.73;65.90;;;;;;;;;;5080191;28;20496;-44
2024/01/30 04:00:50;;;;;;;221.90;63.07;;;;;;;;;;5089142;28;20450;-43
2024/01/30 04:03:16;;;;;;;225.32;66.47;;;;;;;;;;5082336;28;20415;-44
2024/01/30 04:05:42;;;;;;;224.95;65.90;;;;;;;;;;5086479;28;20177;-44
2024/01/30 04:08:08;;;;;;;224.70;66.70;;;;;;;;;;5086612;28;20241;-44
2024/01/30 04:10:35;;;;;;;221.70;63.60;;;;;;;;;;5089697;28;20171;-44
2024/01/30 04:13:01;;;;;;;223.77;66.60;;;;;;;;;;5084414;28;20210;-43
2024/01/30 04:15:29;;;;;;;225.13;68.80;;;;;;;;;;5089993;28;20197;-42
2024/01/30 04:17:57;;;;;;;223.15;65.28;;;;;;;;;;5091307;28;20460;-43
2024/01/30 04:20:23;;;;;;;225.45;66.70;;;;;;;;;;5078888;28;20197;-43
2024/01/30 04:22:50;;;;;;;224.65;68.28;;;;;;;;;;5086275;28;20232;-44
2024/01/30 04:25:17;;;;;;;224.63;66.35;;;;;;;;;;5086884;28;20174;-44
2024/01/30 04:27:43;;;;;;;223.80;65.40;;;;;;;;;;5086195;28;20276;-43
2024/01/30 04:30:09;;;;;;;225.07;67.80;;;;;;;;;;5086092;28;20409;-43
2024/01/30 04:32:36;;;;;;;224.00;65.47;;;;;;;;;;5088881;28;20468;-43
2024/01/30 04:35:02;;;;;;;221.93;64.95;;;;;;;;;;5090639;28;20249;-44
2024/01/30 04:37:28;;;;;;;221.67;64.27;;;;;;;;;;5087189;28;20209;-42
2024/01/30 04:39:53;;;;;;;220.23;63.00;;;;;;;;;;5086681;28;20414;-43
2024/01/30 04:42:19;;;;;;;224.20;67.20;;;;;;;;;;5085778;28;20198;-44
2024/01/30 04:44:45;;;;;;;225.00;68.17;;;;;;;;;;5085556;28;20416;-43
2024/01/30 04:47:11;;;;;;;223.73;65.63;;;;;;;;;;5085961;28;20904;-44
2024/01/30 04:49:39;;;;;;;222.57;65.35;;;;;;;;;;5088369;28;20182;-44
2024/01/30 04:52:06;;;;;;;223.65;65.32;;;;;;;;;;5090875;28;20236;-44
2024/01/30 04:54:31;;;;;;;228.32;71.38;;;;;;;;;;5082648;28;20177;-44
2024/01/30 04:56:59;;;;;;;221.97;64.67;;;;;;;;;;5090957;28;20178;-43
2024/01/30 04:59:25;;;;;;;222.80;65.07;;;;;;;;;;5086100;28;20471;-43
2024/01/30 05:01:51;;;;;;;219.97;62.93;;;;;;;;;;5085699;28;20760;-43
2024/01/30 05:04:17;;;;;;;222.77;65.47;;;;;;;;;;5085349;28;20399;-43
2024/01/30 05:06:43;;;;;;;222.60;65.40;;;;;;;;;;5087356;28;20408;-42
2024/01/30 05:09:09;;;;;;;221.20;63.40;;;;;;;;;;5084470;28;20857;-44
2024/01/30 05:11:38;;;;;;;221.82;63.67;;;;;;;;;;5085337;28;20293;-43
2024/01/30 05:14:05;;;;;;;224.15;65.57;;;;;;;;;;5089864;28;20256;-45
2024/01/30 05:16:31;;;;;;;223.50;65.38;;;;;;;;;;5086786;28;20169;-43
2024/01/30 05:18:58;;;;;;;219.33;61.27;;;;;;;;;;5085342;28;20649;-43
2024/01/30 05:21:24;;;;;;;222.73;64.40;;;;;;;;;;5085647;28;20946;-43
2024/01/30 05:23:52;;;;;;;223.47;64.40;;;;;;;;;;5084991;28;20176;-43
2024/01/30 05:26:18;;;;;;;220.00;60.97;;;;;;;;;;5085444;28;20404;-44
2024/01/30 05:28:48;;;;;;;223.20;63.05;;;;;;;;;;5086715;28;20173;-44
2024/01/30 05:31:14;;;;;;;221.05;61.60;;;;;;;;;;5089718;28;20293;-43
2024/01/30 05:33:40;;;;;;;222.70;63.25;;;;;;;;;;5087471;28;20201;-43
2024/01/30 05:36:06;;;;;;;223.23;65.13;;;;;;;;;;5083772;28;20173;-44
2024/01/30 05:38:32;;;;;;;224.73;65.97;;;;;;;;;;5086521;28;20648;-44
2024/01/30 05:40:58;;;;;;;222.90;63.47;;;;;;;;;;5084585;28;20200;-43
2024/01/30 05:43:24;;;;;;;224.00;62.60;;;;;;;;;;5084598;28;20406;-43
2024/01/30 05:45:52;;;;;;;223.18;62.30;;;;;;;;;;5085670;28;20235;-43
2024/01/30 05:48:18;;;;;;;224.23;64.30;;;;;;;;;;5089543;28;20166;-44
2024/01/30 05:50:45;;;;;;;225.63;64.37;;;;;;;;;;5081511;28;20181;-43
2024/01/30 05:53:10;;;;;;;226.50;65.10;;;;;;;;;;5089353;28;20457;-42
2024/01/30 05:55:36;;;;;;;225.20;65.20;;;;;;;;;;5081899;28;20653;-43
2024/01/30 05:58:03;;;;;;;222.87;64.30;;;;;;;;;;5084629;28;20411;-43
2024/01/30 06:00:29;;;;;;;225.90;66.45;;;;;;;;;;5084262;28;20422;-43
2024/01/30 06:02:55;;;;;;;224.18;63.72;;;;;;;;;;5084867;28;20173;-43
2024/01/30 06:05:21;;;;;;;223.90;64.30;;;;;;;;;;5072597;28;20162;-42
2024/01/30 06:07:47;;;;;;;222.87;62.67;;;;;;;;;;5082843;28;20408;-43
2024/01/30 06:10:13;;;;;;;224.07;65.00;;;;;;;;;;5088985;28;20926;-43
2024/01/30 06:12:40;;;;;;;223.93;64.93;;;;;;;;;;5086717;28;20564;-44
2024/01/30 06:15:06;;;;;;;224.45;65.05;;;;;;;;;;5083793;28;20173;-43
2024/01/30 06:17:32;;;;;;;224.38;65.15;;;;;;;;;;5084374;28;20550;-43
2024/01/30 06:19:59;;;;;;;226.93;67.55;;;;;;;;;;5084015;28;20166;-43
2024/01/30 06:22:26;;;;;;;223.82;64.60;;;;;;;;;;5083321;28;20181;-43
2024/01/30 06:24:52;;;;;;;223.05;63.58;;;;;;;;;;5080442;28;20205;-43
2024/01/30 06:27:18;;;;;;;222.43;63.30;;;;;;;;;;5088854;28;20656;-45
2024/01/30 06:29:44;;;;;;;221.23;61.07;;;;;;;;;;5087239;28;20407;-43
2024/01/30 06:32:10;;;;;;;224.30;63.28;;;;;;;;;;5081927;28;20481;-43
2024/01/30 06:34:36;;;;;;;225.07;66.07;;;;;;;;;;5085673;28;20633;-43
2024/01/30 06:37:02;;;;;;;225.68;66.20;;;;;;;;;;5083706;28;20404;-44
2024/01/30 06:39:28;;;;;;;225.38;65.10;;;;;;;;;;5083663;28;20161;-43
2024/01/30 06:41:54;;;;;;;225.55;66.00;;;;;;;;;;5084044;28;20200;-43
2024/01/30 06:44:20;;;;;;;222.27;62.67;;;;;;;;;;5088297;28;20186;-43
2024/01/30 06:46:46;;;;;;;222.03;61.40;;;;;;;;;;5080275;28;20452;-43
2024/01/30 06:49:12;;;;;;;223.05;63.88;;;;;;;;;;5090822;28;20416;-44
2024/01/30 06:51:39;;;;;;;224.70;63.00;;;;;;;;;;5086918;28;20635;-44
2024/01/30 06:54:05;;;;;;;226.85;65.15;;;;;;;;;;5081823;28;20400;-43
2024/01/30 06:56:31;;;;;;;225.07;64.17;;;;;;;;;;5083512;28;20252;-44
2024/01/30 06:58:59;;;;;;;226.03;65.50;;;;;;;;;;5083644;28;20404;-43
2024/01/30 07:01:29;;;;;;;225.57;64.15;;;;;;;;;;5083391;28;20439;-43
2024/01/30 07:03:55;;;;;;;224.40;65.13;;;;;;;;;;5083350;28;20185;-44
2024/01/30 07:06:22;;;;;;;226.37;67.30;;;;;;;;;;5088095;28;20223;-44
2024/01/30 07:08:48;;;;;;;222.60;62.83;;;;;;;;;;5087241;28;20450;-43
2024/01/30 07:11:19;;;;;;;224.23;64.17;;;;;;;;;;5083152;28;20240;-43
2024/01/30 07:13:45;;;;;;;224.18;63.97;;;;;;;;;;5083198;28;20403;-43
2024/01/30 07:16:10;;;;;;;225.50;65.20;;;;;;;;;;5083251;28;20175;-43
2024/01/30 07:18:36;;;;;;;224.83;64.90;;;;;;;;;;5083287;28;20426;-43
2024/01/30 07:21:02;;;;;;;226.67;65.37;;;;;;;;;;5079180;28;20478;-44
2024/01/30 07:23:29;;;;;;;229.40;67.63;;;;;;;;;;5080939;28;20403;-44
2024/01/30 07:25:55;;;;;;;226.38;66.25;;;;;;;;;;5082333;28;20404;-45
2024/01/30 07:28:21;;;;;;;224.37;64.77;;;;;;;;;;5087932;28;20687;-43
2024/01/30 07:30:48;;;;;;;224.90;64.47;;;;;;;;;;5084745;28;20412;-43
2024/01/30 07:33:14;;;;;;;225.80;65.78;;;;;;;;;;5083018;28;20595;-43
2024/01/30 07:35:40;;;;;;;226.50;65.72;;;;;;;;;;5086820;28;20267;-42
2024/01/30 07:38:06;;;;;;;224.70;64.50;;;;;;;;;;5087206;28;20588;-43
2024/01/30 07:40:33;;;;;;;223.95;64.25;;;;;;;;;;5090333;28;20405;-44
2024/01/30 07:42:59;;;;;;;224.15;64.60;;;;;;;;;;5091983;28;20189;-43
2024/01/30 07:45:27;;;;;;;226.02;67.32;;;;;;;;;;5085045;28;20181;-43
2024/01/30 07:47:53;;;;;;;227.45;69.15;;;;;;;;;;5091699;28;20170;-43
2024/01/30 07:50:19;;;;;;;225.67;65.17;;;;;;;;;;5086816;28;20659;-43
2024/01/30 07:52:51;;;;;;;225.90;68.13;;;;;;;;;;5086643;28;20463;-43
2024/01/30 07:55:17;;;;;;;237.13;78.35;;;;;;;;;;5083437;28;20453;-46
2024/01/30 07:57:42;;;;;;;226.43;67.35;;;;;;;;;;5076610;28;20179;-45
2024/01/30 08:00:09;;;;;;;225.43;65.87;;;;;;;;;;5088221;28;20568;-45
2024/01/30 08:02:35;;;;;;;227.02;68.25;;;;;;;;;;5090781;28;20439;-46
2024/01/30 08:05:01;;;;;;;227.97;69.97;;;;;;;;;;5092706;28;20181;-46
2024/01/30 08:07:29;;;;;;;226.20;67.17;;;;;;;;;;5088821;28;20494;-46
2024/01/30 08:09:55;;;;;;;228.20;67.93;;;;;;;;;;5087939;28;20495;-46
2024/01/30 08:12:21;;;;;;;225.57;66.67;;;;;;;;;;5089155;28;20328;-45
2024/01/30 08:14:47;;;;;;;229.17;70.07;;;;;;;;;;5087406;28;20406;-45
2024/01/30 08:17:13;;;;;;;228.17;67.97;;;;;;;;;;5087610;28;20954;-45
2024/01/30 08:19:39;;;;;;;226.20;65.87;;;;;;;;;;5090250;28;20888;-45
2024/01/30 08:22:05;;;;;;;230.20;69.50;;;;;;;;;;5084735;28;20463;-46
2024/01/30 08:24:31;;;;;;;224.60;65.80;;;;;;;;;;5084309;28;20483;-45
2024/01/30 08:26:58;;;;;;;227.77;67.70;;;;;;;;;;5095897;28;20412;-45
2024/01/30 08:29:24;;;;;;;227.68;67.43;;;;;;;;;;5087829;28;20438;-46
2024/01/30 08:31:50;;;;;;;230.18;70.85;;;;;;;;;;5087173;28;20251;-46
2024/01/30 08:34:16;;;;;;;228.33;67.17;;;;;;;;;;5087443;28;20178;-45
2024/01/30 08:36:42;;;;;;;232.30;71.47;;;;;;;;;;5087473;28;20427;-44
2024/01/30 08:39:08;;;;;;;231.57;71.68;;;;;;;;;;5082231;28;20432;-45
2024/01/30 08:41:34;;;;;;;230.52;70.68;;;;;;;;;;5090407;28;20762;-46
2024/01/30 08:44:00;;;;;;;229.07;69.87;;;;;;;;;;5085892;28;20204;-46
2024/01/30 08:46:26;;;;;;;231.20;72.17;;;;;;;;;;5090890;28;20419;-45
2024/01/30 08:48:53;;;;;;;231.57;71.90;;;;;;;;;;5076597;28;20436;-46
2024/01/30 08:51:19;;;;;;;230.45;72.07;;;;;;;;;;5074422;28;20472;-45
2024/01/30 08:53:44;;;;;;;230.87;70.60;;;;;;;;;;5071772;28;20175;-46
2024/01/30 08:56:11;;;;;;;228.07;71.40;;;;;;;;;;5074738;28;20406;-44
2024/01/30 08:58:37;;;;;;;231.77;73.10;;;;;;;;;;5078359;28;20417;-46
2024/01/30 09:01:05;;;;;;;236.23;76.00;;;;;;;;;;5073835;28;20215;-45
2024/01/30 09:03:31;;;;;;;235.90;75.15;;;;;;;;;;5071458;28;20424;-47
2024/01/30 09:05:57;;;;;;;230.67;69.80;;;;;;;;;;5075114;28;20170;-46
2024/01/30 09:08:23;;;;;;;227.13;67.83;;;;;;;;;;5071518;28;20787;-46
2024/01/30 09:10:49;;;;;;;231.93;70.45;;;;;;;;;;5076647;28;20445;-45
2024/01/30 09:13:15;;;;;;;230.90;69.80;;;;;;;;;;5071564;28;20588;-45
2024/01/30 09:15:42;;;;;;;229.93;70.90;;;;;;;;;;5072146;28;20180;-47
2024/01/30 09:18:08;;;;;;;229.27;70.03;;;;;;;;;;5080228;28;20171;-46
2024/01/30 09:20:34;;;;;;;230.53;73.40;;;;;;;;;;5066710;28;20692;-47
2024/01/30 09:23:00;;;;;;;227.20;66.13;;;;;;;;;;5073875;28;20416;-46
2024/01/30 09:25:26;;;;;;;229.87;70.57;;;;;;;;;;5080983;28;20417;-46
2024/01/30 09:27:52;;;;;;;230.73;72.00;;;;;;;;;;5095204;28;20411;-48
2024/01/30 09:30:18;;;;;;;227.70;68.13;;;;;;;;;;5096160;28;20492;-47
2024/01/30 09:32:44;;;;;;;232.32;71.85;;;;;;;;;;5095797;28;20461;-47
2024/01/30 09:35:10;;;;;;;232.27;72.30;;;;;;;;;;5096093;28;20170;-46
2024/01/30 09:37:36;;;;;;;228.37;69.10;;;;;;;;;;5065343;28;20194;-46
2024/01/30 09:40:02;;;;;;;230.07;72.17;;;;;;;;;;5080390;28;20412;-45
2024/01/30 09:42:35;;;;;;;229.68;70.68;;;;;;;;;;5095106;28;20426;-45
2024/01/30 09:45:02;;;;;;;228.48;67.50;;;;;;;;;;5094654;28;20223;-47
2024/01/30 09:47:28;;;;;;;236.13;77.78;;;;;;;;;;5086349;28;20167;-47
2024/01/30 09:49:56;;;;;;;231.67;72.40;;;;;;;;;;5087267;28;20178;-46
2024/01/30 09:52:22;;;;;;;230.15;70.13;;;;;;;;;;5075107;28;20964;-47
2024/01/30 09:54:48;;;;;;;229.17;70.47;;;;;;;;;;5085154;28;20181;-46
2024/01/30 09:57:14;;;;;;;231.43;71.18;;;;;;;;;;5090565;28;20913;-46
2024/01/30 09:59:43;;;;;;;229.40;71.57;;;;;;;;;;5089148;28;20203;-46
2024/01/30 10:02:10;;;;;;;229.27;69.72;;;;;;;;;;5086366;28;20984;-46
2024/01/30 10:04:36;;;;;;;231.15;71.40;;;;;;;;;;5087954;28;20175;-46
2024/01/30 10:07:03;;;;;;;231.67;73.07;;;;;;;;;;5087187;28;20178;-46
2024/01/30 10:09:29;;;;;;;231.48;73.82;;;;;;;;;;5087056;28;20411;-45
2024/01/30 10:11:55;;;;;;;231.30;73.45;;;;;;;;;;5087534;28;20684;-46
2024/01/30 10:14:21;;;;;;;236.77;79.90;;;;;;;;;;5092209;28;20234;-47
2024/01/30 10:16:47;;;;;;;237.27;80.37;;;;;;;;;;5091118;28;20796;-46
2024/01/30 10:19:13;;;;;;;237.15;78.65;;;;;;;;;;5086248;28;20954;-47
2024/01/30 10:21:39;;;;;;;235.60;75.77;;;;;;;;;;5089344;28;20200;-47
2024/01/30 10:24:05;;;;;;;234.53;76.57;;;;;;;;;;5085330;28;20418;-48
2024/01/30 10:26:34;;;;;;;235.50;76.38;;;;;;;;;;5086825;28;20414;-46
2024/01/30 10:29:00;;;;;;;233.52;77.90;;;;;;;;;;5088302;28;20170;-46
2024/01/30 10:31:26;;;;;;;232.70;75.60;;;;;;;;;;5092354;28;20194;-47
2024/01/30 10:33:52;;;;;;;240.07;82.70;;;;;;;;;;5084157;28;20181;-47
2024/01/30 10:36:18;;;;;;;231.07;73.53;;;;;;;;;;5078084;28;20419;-46
2024/01/30 10:38:46;;;;;;;235.25;79.10;;;;;;;;;;5088658;28;20468;-48
2024/01/30 10:41:14;;;;;;;239.88;81.50;;;;;;;;;;5088665;28;20189;-46
2024/01/30 10:43:47;;;;;;;238.13;83.40;;;;;;;;;;5082424;28;20176;-47
2024/01/30 10:46:20;;;;;;;240.95;83.10;;;;;;;;;;5088000;28;20180;-46
2024/01/30 10:48:49;;;;;;;239.73;82.57;;;;;;;;;;5085652;28;20169;-45
2024/01/30 10:51:16;;;;;;;241.55;85.15;;;;;;;;;;5086850;28;20271;-48
2024/01/30 10:53:41;;;;;;;237.52;80.00;;;;;;;;;;5089829;28;20193;-48
2024/01/30 10:56:08;;;;;;;239.77;86.07;;;;;;;;;;5091624;28;20176;-48
2024/01/30 10:58:35;;;;;;;238.40;82.63;;;;;;;;;;5078697;28;20427;-46
2024/01/30 11:01:02;;;;;;;241.03;81.83;;;;;;;;;;5077060;28;20220;-47
2024/01/30 11:03:28;;;;;;;243.15;85.95;;;;;;;;;;5089422;28;20399;-47
2024/01/30 11:05:54;;;;;;;241.17;84.27;;;;;;;;;;5079628;28;20267;-48
2024/01/30 11:08:25;;;;;;;243.00;88.50;;;;;;;;;;5076446;28;20514;-46
2024/01/30 11:10:57;;;;;;;244.03;89.93;;;;;;;;;;5087387;28;20479;-46
2024/01/30 11:13:23;;;;;;;244.02;89.05;;;;;;;;;;5091645;28;20488;-48
2024/01/30 11:15:49;;;;;;;242.87;88.87;;;;;;;;;;5085996;28;20246;-47
2024/01/30 11:18:25;;;;;;;241.50;86.23;;;;;;;;;;5092285;28;20408;-49
2024/01/30 11:20:51;;;;;;;244.90;93.17;;;;;;;;;;5091953;28;20423;-47
2024/01/30 11:23:17;;;;;;;242.50;91.10;;;;;;;;;;5088438;28;20411;-47
2024/01/30 11:25:45;;;;;;;240.30;85.83;;;;;;;;;;5088425;28;20479;-48
2024/01/30 11:28:18;;;;;;;241.73;88.57;;;;;;;;;;5089407;28;20415;-48
2024/01/30 11:30:47;;;;;;;244.23;90.47;;;;;;;;;;5088627;28;20763;-45
2024/01/30 11:33:14;;;;;;;242.70;89.97;;;;;;;;;;5090174;28;20449;-45
2024/01/30 11:35:40;;;;;;;241.07;86.55;;;;;;;;;;5088234;28;20436;-47
2024/01/30 11:38:06;;;;;;;241.17;87.07;;;;;;;;;;5091840;28;20656;-48
2024/01/30 11:40:33;;;;;;;240.25;83.70;;;;;;;;;;5089297;28;20417;-48
2024/01/30 11:42:59;;;;;;;244.57;88.28;;;;;;;;;;5087688;28;20188;-46
2024/01/30 11:45:25;;;;;;;242.23;86.03;;;;;;;;;;5087228;28;20178;-48
2024/01/30 11:47:51;;;;;;;241.45;81.78;;;;;;;;;;5085841;28;20905;-47
2024/01/30 11:50:17;;;;;;;245.03;88.07;;;;;;;;;;5084979;28;20187;-46
2024/01/30 11:52:43;;;;;;;241.75;80.97;;;;;;;;;;5081336;28;20467;-46
2024/01/30 11:55:10;;;;;;;240.30;83.72;;;;;;;;;;5089439;28;20239;-46
2024/01/30 11:57:36;;;;;;;239.98;82.22;;;;;;;;;;5083285;28;20198;-46
2024/01/30 12:00:10;;;;;;;238.68;80.55;;;;;;;;;;5090555;28;20657;-46
2024/01/30 12:02:36;;;;;;;237.20;78.70;;;;;;;;;;5086874;28;20624;-46
2024/01/30 12:05:08;;;;;;;236.40;79.50;;;;;;;;;;5084218;28;20173;-45
2024/01/30 12:07:34;;;;;;;235.07;75.13;;;;;;;;;;5084775;28;20166;-46
2024/01/30 12:10:00;;;;;;;237.63;79.15;;;;;;;;;;5085184;28;20198;-45
2024/01/30 12:12:27;;;;;;;236.30;78.35;;;;;;;;;;5083984;28;20277;-46
2024/01/30 12:14:53;;;;;;;233.98;74.97;;;;;;;;;;5083873;28;20705;-45
2024/01/30 12:17:32;;;;;;;234.75;75.53;;;;;;;;;;5089443;28;20718;-44
2024/01/30 12:20:06;;;;;;;235.45;76.47;;;;;;;;;;5089259;28;20522;-47
2024/01/30 12:22:32;;;;;;;236.45;79.13;;;;;;;;;;5089182;28;20532;-46
2024/01/30 12:24:58;;;;;;;238.07;77.88;;;;;;;;;;5087937;28;20184;-46
2024/01/30 12:27:24;;;;;;;233.63;76.28;;;;;;;;;;5088531;28;20177;-47
2024/01/30 12:29:56;;;;;;;236.68;79.30;;;;;;;;;;5087821;28;20178;-45
2024/01/30 12:32:23;;;;;;;239.60;84.30;;;;;;;;;;5076157;28;20280;-47
2024/01/30 12:34:50;;;;;;;233.63;74.93;;;;;;;;;;5088520;28;20538;-46
2024/01/30 12:37:22;;;;;;;232.20;73.20;;;;;;;;;;5092222;28;20638;-47
2024/01/30 12:39:48;;;;;;;230.50;72.75;;;;;;;;;;5084825;28;20204;-46
2024/01/30 12:42:14;;;;;;;234.27;76.70;;;;;;;;;;5092621;28;20203;-45
2024/01/30 12:44:40;;;;;;;234.73;74.68;;;;;;;;;;5089912;28;20485;-44
2024/01/30 12:47:06;;;;;;;233.30;75.15;;;;;;;;;;5087193;28;20181;-47
2024/01/30 12:49:32;;;;;;;231.20;71.50;;;;;;;;;;5087581;28;20179;-46
2024/01/30 12:51:59;;;;;;;234.43;73.73;;;;;;;;;;5087780;28;20201;-46
2024/01/30 12:54:25;;;;;;;232.35;72.88;;;;;;;;;;5087393;28;20783;-45
2024/01/30 12:56:51;;;;;;;233.90;74.30;;;;;;;;;;5088343;28;20212;-48
2024/01/30 12:59:17;;;;;;;235.07;74.47;;;;;;;;;;5088528;28;20407;-46
2024/01/30 13:01:43;;;;;;;236.57;78.00;;;;;;;;;;5090689;28;20661;-48
2024/01/30 13:04:10;;;;;;;235.50;76.40;;;;;;;;;;5087287;28;20180;-46
2024/01/30 13:06:36;;;;;;;231.27;72.32;;;;;;;;;;5088456;28;20465;-48
2024/01/30 13:09:02;;;;;;;237.07;77.63;;;;;;;;;;5087124;28;20177;-45
2024/01/30 13:11:28;;;;;;;232.38;73.72;;;;;;;;;;5087240;28;20447;-46
2024/01/30 13:13:54;;;;;;;229.63;70.07;;;;;;;;;;5087407;28;20187;-46
2024/01/30 13:16:20;;;;;;;231.50;73.57;;;;;;;;;;5091454;28;20412;-46
2024/01/30 13:18:46;;;;;;;228.97;70.63;;;;;;;;;;5090708;28;20434;-46
2024/01/30 13:21:12;;;;;;;230.48;74.45;;;;;;;;;;5085246;28;20430;-46
2024/01/30 13:23:38;;;;;;;234.02;78.57;;;;;;;;;;5089086;28;20182;-47
2024/01/30 13:26:04;;;;;;;227.83;70.20;;;;;;;;;;5086962;28;20173;-46
2024/01/30 13:28:30;;;;;;;233.25;77.22;;;;;;;;;;5086870;28;20478;-46
2024/01/30 13:30:56;;;;;;;232.07;74.10;;;;;;;;;;5086489;28;20225;-46
2024/01/30 13:33:22;;;;;;;229.60;70.40;;;;;;;;;;5087184;28;20514;-46
2024/01/30 13:35:48;;;;;;;228.97;71.37;;;;;;;;;;5083803;28;20396;-45
2024/01/30 13:38:15;;;;;;;228.13;69.10;;;;;;;;;;5091422;28;20421;-45
2024/01/30 13:40:41;;;;;;;227.80;68.80;;;;;;;;;;5090020;28;20418;-48
2024/01/30 13:43:07;;;;;;;227.90;68.30;;;;;;;;;;5086648;28;20180;-46
2024/01/30 13:45:33;;;;;;;223.40;66.00;;;;;;;;;;5081404;28;20456;-46
2024/01/30 13:47:59;;;;;;;230.67;73.10;;;;;;;;;;5086309;28;20405;-45
2024/01/30 13:50:25;;;;;;;232.02;73.20;;;;;;;;;;5074374;28;20985;-45
2024/01/30 13:52:50;;;;;;;227.80;70.97;;;;;;;;;;5069986;28;20206;-47
2024/01/30 13:55:16;;;;;;;227.57;70.57;;;;;;;;;;5073362;28;20493;-46
2024/01/30 13:57:42;;;;;;;227.97;68.70;;;;;;;;;;5081739;28;20426;-46
2024/01/30 14:00:09;;;;;;;228.97;69.97;;;;;;;;;;5082944;28;20437;-48